Archival Weather

Chicago O'Hare International

Chicago, Illinois (KORD)

Report from: Sunday, December 25, 2022 1:51 PM CST
Current time: Monday, June 24, 2024 6:37 AM CDT

Current weather – Weather history – Daily summaries
Weather forecast

Temperature-10.0°C (14.0°F)
Wind chill-19.2°C (-2.5°F)
Dew point-17.2°C (1.0°F)
Winds 15 kts (7.7 m/s, 17.3 mph) West (260°)
Wind gusts 23 kts (11.8 m/s, 26.5 mph)
Visibility10 mi. (16.1 km)
Clouds Ceiling: Broken clouds 25,000 ft. (7,620 m)
Altimeter30.03 in.Hg (1017 mB)
Relative humidity56 %
Density altitude-3,266 ft. (-995 m)
Sea-level pressure101.8 kPa (1018 mB, 30.07 in.Hg)
Remarks System requires maintenance
Automated weather observing station with precipitation discriminator
Flight conditions Visual Meteorological Conditions
Raw dataKORD 251951Z 26015G23KT 10SM BKN250 M10/M17 A3003 RMK AO2 SLP182 T11001172 $
An error has occurred. This application may no longer respond until reloaded. Reload 🗙